sensor_id;sensor_type;location;lat;lon;timestamp;pressure;altitude;pressure_sealevel;temperature
19040;BMP180;9652;49.014;12.052;2023-06-14T00:00:48;97460.00;;;19.40
19040;BMP180;9652;49.014;12.052;2023-06-14T00:03:15;97470.00;;;19.30
19040;BMP180;9652;49.014;12.052;2023-06-14T00:05:44;97451.00;;;19.30
19040;BMP180;9652;49.014;12.052;2023-06-14T00:08:12;97466.00;;;19.20
19040;BMP180;9652;49.014;12.052;2023-06-14T00:10:39;97426.00;;;19.20
19040;BMP180;9652;49.014;12.052;2023-06-14T00:13:07;97466.00;;;19.10
19040;BMP180;9652;49.014;12.052;2023-06-14T00:15:35;97468.00;;;19.10
19040;BMP180;9652;49.014;12.052;2023-06-14T00:18:03;97469.00;;;19.00
19040;BMP180;9652;49.014;12.052;2023-06-14T00:20:32;97457.00;;;19.00
19040;BMP180;9652;49.014;12.052;2023-06-14T00:23:01;97469.00;;;18.90
19040;BMP180;9652;49.014;12.052;2023-06-14T00:25:28;97468.00;;;18.80
19040;BMP180;9652;49.014;12.052;2023-06-14T00:27:57;97468.00;;;18.80
19040;BMP180;9652;49.014;12.052;2023-06-14T00:30:25;97471.00;;;18.70
19040;BMP180;9652;49.014;12.052;2023-06-14T00:32:56;97466.00;;;18.70
19040;BMP180;9652;49.014;12.052;2023-06-14T00:35:25;97468.00;;;18.60
19040;BMP180;9652;49.014;12.052;2023-06-14T00:37:52;97464.00;;;18.60
19040;BMP180;9652;49.014;12.052;2023-06-14T00:40:22;97482.00;;;18.60
19040;BMP180;9652;49.014;12.052;2023-06-14T00:42:49;97461.00;;;18.50
19040;BMP180;9652;49.014;12.052;2023-06-14T00:45:16;97466.00;;;18.50
19040;BMP180;9652;49.014;12.052;2023-06-14T00:47:45;97463.00;;;18.50
19040;BMP180;9652;49.014;12.052;2023-06-14T00:50:13;97459.00;;;18.40
19040;BMP180;9652;49.014;12.052;2023-06-14T00:52:40;97454.00;;;18.40
19040;BMP180;9652;49.014;12.052;2023-06-14T00:55:08;97440.00;;;18.40
19040;BMP180;9652;49.014;12.052;2023-06-14T00:57:37;97460.00;;;18.40
19040;BMP180;9652;49.014;12.052;2023-06-14T01:00:07;97453.00;;;18.30
19040;BMP180;9652;49.014;12.052;2023-06-14T01:02:36;97446.00;;;18.30
19040;BMP180;9652;49.014;12.052;2023-06-14T01:05:04;97456.00;;;18.20
19040;BMP180;9652;49.014;12.052;2023-06-14T01:07:46;97449.00;;;18.20
19040;BMP180;9652;49.014;12.052;2023-06-14T01:10:30;97450.00;;;18.10
19040;BMP180;9652;49.014;12.052;2023-06-14T01:13:08;97453.00;;;18.10
19040;BMP180;9652;49.014;12.052;2023-06-14T01:15:38;97453.00;;;18.10
19040;BMP180;9652;49.014;12.052;2023-06-14T01:18:05;97459.00;;;18.00
19040;BMP180;9652;49.014;12.052;2023-06-14T01:20:34;97459.00;;;18.00
19040;BMP180;9652;49.014;12.052;2023-06-14T01:23:05;97461.00;;;17.90
19040;BMP180;9652;49.014;12.052;2023-06-14T01:25:32;97457.00;;;17.90
19040;BMP180;9652;49.014;12.052;2023-06-14T01:28:05;97463.00;;;17.80
19040;BMP180;9652;49.014;12.052;2023-06-14T01:30:39;97462.00;;;17.80
19040;BMP180;9652;49.014;12.052;2023-06-14T01:33:11;97429.00;;;17.70
19040;BMP180;9652;49.014;12.052;2023-06-14T01:35:40;97460.00;;;17.70
19040;BMP180;9652;49.014;12.052;2023-06-14T01:38:09;97454.00;;;17.60
19040;BMP180;9652;49.014;12.052;2023-06-14T01:40:37;97455.00;;;17.60
19040;BMP180;9652;49.014;12.052;2023-06-14T01:43:06;97448.00;;;17.60
19040;BMP180;9652;49.014;12.052;2023-06-14T01:45:36;97463.00;;;17.50
19040;BMP180;9652;49.014;12.052;2023-06-14T01:48:04;97445.00;;;17.50
19040;BMP180;9652;49.014;12.052;2023-06-14T01:50:31;97451.00;;;17.50
19040;BMP180;9652;49.014;12.052;2023-06-14T01:52:59;97447.00;;;17.40
19040;BMP180;9652;49.014;12.052;2023-06-14T01:55:27;97452.00;;;17.40
19040;BMP180;9652;49.014;12.052;2023-06-14T01:57:54;97452.00;;;17.40
19040;BMP180;9652;49.014;12.052;2023-06-14T02:00:21;97457.00;;;17.30
19040;BMP180;9652;49.014;12.052;2023-06-14T02:02:52;97457.00;;;17.30
19040;BMP180;9652;49.014;12.052;2023-06-14T02:05:19;97450.00;;;17.20
19040;BMP180;9652;49.014;12.052;2023-06-14T02:07:48;97454.00;;;17.20
19040;BMP180;9652;49.014;12.052;2023-06-14T02:10:17;97448.00;;;17.20
19040;BMP180;9652;49.014;12.052;2023-06-14T02:12:48;97449.00;;;17.10
19040;BMP180;9652;49.014;12.052;2023-06-14T02:15:16;97441.00;;;17.10
19040;BMP180;9652;49.014;12.052;2023-06-14T02:17:44;97447.00;;;17.10
19040;BMP180;9652;49.014;12.052;2023-06-14T02:20:13;97449.00;;;17.10
19040;BMP180;9652;49.014;12.052;2023-06-14T02:22:40;97431.00;;;17.00
19040;BMP180;9652;49.014;12.052;2023-06-14T02:25:08;97454.00;;;17.00
19040;BMP180;9652;49.014;12.052;2023-06-14T02:27:35;97448.00;;;17.00
19040;BMP180;9652;49.014;12.052;2023-06-14T02:30:06;97456.00;;;17.00
19040;BMP180;9652;49.014;12.052;2023-06-14T02:32:33;97465.00;;;16.90
19040;BMP180;9652;49.014;12.052;2023-06-14T02:35:01;97464.00;;;16.90
19040;BMP180;9652;49.014;12.052;2023-06-14T02:37:28;97455.00;;;16.90
19040;BMP180;9652;49.014;12.052;2023-06-14T02:39:56;97464.00;;;16.90
19040;BMP180;9652;49.014;12.052;2023-06-14T02:42:23;97453.00;;;16.80
19040;BMP180;9652;49.014;12.052;2023-06-14T02:44:50;97456.00;;;16.80
19040;BMP180;9652;49.014;12.052;2023-06-14T02:47:19;97463.00;;;16.80
19040;BMP180;9652;49.014;12.052;2023-06-14T02:49:46;97463.00;;;16.70
19040;BMP180;9652;49.014;12.052;2023-06-14T02:52:14;97457.00;;;16.70
19040;BMP180;9652;49.014;12.052;2023-06-14T02:54:41;97463.00;;;16.70
19040;BMP180;9652;49.014;12.052;2023-06-14T02:57:09;97461.00;;;16.70
19040;BMP180;9652;49.014;12.052;2023-06-14T02:59:38;97458.00;;;16.60
19040;BMP180;9652;49.014;12.052;2023-06-14T03:02:05;97467.00;;;16.60
19040;BMP180;9652;49.014;12.052;2023-06-14T03:04:35;97460.00;;;16.60
19040;BMP180;9652;49.014;12.052;2023-06-14T03:07:08;97459.00;;;16.50
19040;BMP180;9652;49.014;12.052;2023-06-14T03:09:39;97464.00;;;16.50
19040;BMP180;9652;49.014;12.052;2023-06-14T03:12:09;97462.00;;;16.50
19040;BMP180;9652;49.014;12.052;2023-06-14T03:14:37;97469.00;;;16.50
19040;BMP180;9652;49.014;12.052;2023-06-14T03:17:06;97461.00;;;16.00
19040;BMP180;9652;49.014;12.052;2023-06-14T03:19:36;97473.00;;;16.40
19040;BMP180;9652;49.014;12.052;2023-06-14T03:22:04;97466.00;;;16.20
19040;BMP180;9652;49.014;12.052;2023-06-14T03:24:33;97481.00;;;16.40
19040;BMP180;9652;49.014;12.052;2023-06-14T03:27:03;97426.00;;;16.30
19040;BMP180;9652;49.014;12.052;2023-06-14T03:29:31;97478.00;;;16.30
19040;BMP180;9652;49.014;12.052;2023-06-14T03:31:59;97476.00;;;16.30
19040;BMP180;9652;49.014;12.052;2023-06-14T03:34:36;97477.00;;;16.30
19040;BMP180;9652;49.014;12.052;2023-06-14T03:37:05;97461.00;;;16.30
19040;BMP180;9652;49.014;12.052;2023-06-14T03:39:32;97481.00;;;16.20
19040;BMP180;9652;49.014;12.052;2023-06-14T03:42:00;97432.00;;;16.20
19040;BMP180;9652;49.014;12.052;2023-06-14T03:44:27;97481.00;;;16.30
19040;BMP180;9652;49.014;12.052;2023-06-14T03:46:55;97502.00;;;16.30
19040;BMP180;9652;49.014;12.052;2023-06-14T03:49:23;97487.00;;;16.00
19040;BMP180;9652;49.014;12.052;2023-06-14T03:51:51;97489.00;;;16.30
19040;BMP180;9652;49.014;12.052;2023-06-14T03:54:22;97498.00;;;16.30
19040;BMP180;9652;49.014;12.052;2023-06-14T03:56:51;97494.00;;;16.30
19040;BMP180;9652;49.014;12.052;2023-06-14T03:59:18;97496.00;;;16.40
19040;BMP180;9652;49.014;12.052;2023-06-14T04:01:45;97495.00;;;16.40
19040;BMP180;9652;49.014;12.052;2023-06-14T04:04:14;97501.00;;;16.50
19040;BMP180;9652;49.014;12.052;2023-06-14T04:06:43;97510.00;;;16.50
19040;BMP180;9652;49.014;12.052;2023-06-14T04:09:15;97500.00;;;16.60
19040;BMP180;9652;49.014;12.052;2023-06-14T04:11:42;97509.00;;;16.70
19040;BMP180;9652;49.014;12.052;2023-06-14T04:14:09;97509.00;;;16.70
19040;BMP180;9652;49.014;12.052;2023-06-14T04:16:37;97505.00;;;16.80
19040;BMP180;9652;49.014;12.052;2023-06-14T04:19:05;97503.00;;;16.80
19040;BMP180;9652;49.014;12.052;2023-06-14T04:21:32;97496.00;;;16.90
19040;BMP180;9652;49.014;12.052;2023-06-14T04:24:03;97510.00;;;16.90
19040;BMP180;9652;49.014;12.052;2023-06-14T04:26:34;97503.00;;;17.00
19040;BMP180;9652;49.014;12.052;2023-06-14T04:29:02;97485.00;;;17.00
19040;BMP180;9652;49.014;12.052;2023-06-14T04:31:32;97503.00;;;17.10
19040;BMP180;9652;49.014;12.052;2023-06-14T04:34:01;97511.00;;;17.10
19040;BMP180;9652;49.014;12.052;2023-06-14T04:36:32;97518.00;;;17.10
19040;BMP180;9652;49.014;12.052;2023-06-14T04:39:01;97523.00;;;17.20
19040;BMP180;9652;49.014;12.052;2023-06-14T04:41:30;97518.00;;;17.20
19040;BMP180;9652;49.014;12.052;2023-06-14T04:44:01;97525.00;;;17.20
19040;BMP180;9652;49.014;12.052;2023-06-14T04:46:31;97530.00;;;17.20
19040;BMP180;9652;49.014;12.052;2023-06-14T04:48:58;97527.00;;;17.30
19040;BMP180;9652;49.014;12.052;2023-06-14T04:51:28;97527.00;;;17.30
19040;BMP180;9652;49.014;12.052;2023-06-14T04:53:57;97523.00;;;17.30
19040;BMP180;9652;49.014;12.052;2023-06-14T04:56:26;97530.00;;;17.40
19040;BMP180;9652;49.014;12.052;2023-06-14T04:58:55;97530.00;;;17.40
19040;BMP180;9652;49.014;12.052;2023-06-14T05:01:24;97521.00;;;17.50
19040;BMP180;9652;49.014;12.052;2023-06-14T05:03:51;97503.00;;;17.60
19040;BMP180;9652;49.014;12.052;2023-06-14T05:06:18;97526.00;;;17.60
19040;BMP180;9652;49.014;12.052;2023-06-14T05:08:46;97534.00;;;17.70
19040;BMP180;9652;49.014;12.052;2023-06-14T05:11:13;97533.00;;;17.80
19040;BMP180;9652;49.014;12.052;2023-06-14T05:13:42;97535.00;;;17.90
19040;BMP180;9652;49.014;12.052;2023-06-14T05:16:11;97535.00;;;17.90
19040;BMP180;9652;49.014;12.052;2023-06-14T05:18:39;97536.00;;;18.00
19040;BMP180;9652;49.014;12.052;2023-06-14T05:21:07;97483.00;;;18.00
19040;BMP180;9652;49.014;12.052;2023-06-14T05:23:34;97535.00;;;18.10
19040;BMP180;9652;49.014;12.052;2023-06-14T05:26:01;97541.00;;;18.20
19040;BMP180;9652;49.014;12.052;2023-06-14T05:28:30;97555.00;;;18.20
19040;BMP180;9652;49.014;12.052;2023-06-14T05:30:57;97540.00;;;18.30
19040;BMP180;9652;49.014;12.052;2023-06-14T05:33:25;97550.00;;;18.30
19040;BMP180;9652;49.014;12.052;2023-06-14T05:35:53;97542.00;;;18.40
19040;BMP180;9652;49.014;12.052;2023-06-14T05:38:21;97546.00;;;18.40
19040;BMP180;9652;49.014;12.052;2023-06-14T05:40:48;97558.00;;;18.50
19040;BMP180;9652;49.014;12.052;2023-06-14T05:43:15;97550.00;;;18.50
19040;BMP180;9652;49.014;12.052;2023-06-14T05:45:42;97548.00;;;18.60
19040;BMP180;9652;49.014;12.052;2023-06-14T05:48:09;97551.00;;;18.60
19040;BMP180;9652;49.014;12.052;2023-06-14T05:50:36;97550.00;;;18.70
19040;BMP180;9652;49.014;12.052;2023-06-14T05:53:04;97557.00;;;18.70
19040;BMP180;9652;49.014;12.052;2023-06-14T05:55:31;97571.00;;;18.80
19040;BMP180;9652;49.014;12.052;2023-06-14T05:57:58;97555.00;;;18.80
19040;BMP180;9652;49.014;12.052;2023-06-14T06:00:26;97565.00;;;18.90
19040;BMP180;9652;49.014;12.052;2023-06-14T06:02:53;97570.00;;;19.00
19040;BMP180;9652;49.014;12.052;2023-06-14T06:05:22;97519.00;;;19.10
19040;BMP180;9652;49.014;12.052;2023-06-14T06:07:49;97556.00;;;19.10
19040;BMP180;9652;49.014;12.052;2023-06-14T06:10:18;97509.00;;;19.20
19040;BMP180;9652;49.014;12.052;2023-06-14T06:12:45;97561.00;;;19.30
19040;BMP180;9652;49.014;12.052;2023-06-14T06:15:13;97556.00;;;19.40
19040;BMP180;9652;49.014;12.052;2023-06-14T06:17:40;97556.00;;;19.40
19040;BMP180;9652;49.014;12.052;2023-06-14T06:20:08;97556.00;;;19.50
19040;BMP180;9652;49.014;12.052;2023-06-14T06:22:35;97567.00;;;19.60
19040;BMP180;9652;49.014;12.052;2023-06-14T06:25:03;97557.00;;;19.70
19040;BMP180;9652;49.014;12.052;2023-06-14T06:27:31;97576.00;;;19.80
19040;BMP180;9652;49.014;12.052;2023-06-14T06:29:58;97565.00;;;19.90
19040;BMP180;9652;49.014;12.052;2023-06-14T06:32:25;97577.00;;;20.00
19040;BMP180;9652;49.014;12.052;2023-06-14T06:34:53;97585.00;;;20.10
19040;BMP180;9652;49.014;12.052;2023-06-14T06:37:20;97564.00;;;20.30
19040;BMP180;9652;49.014;12.052;2023-06-14T06:39:47;97588.00;;;20.40
19040;BMP180;9652;49.014;12.052;2023-06-14T06:42:14;97599.00;;;20.50
19040;BMP180;9652;49.014;12.052;2023-06-14T06:44:44;97586.00;;;20.60
19040;BMP180;9652;49.014;12.052;2023-06-14T06:47:12;97591.00;;;20.70
19040;BMP180;9652;49.014;12.052;2023-06-14T06:49:39;97597.00;;;20.40
19040;BMP180;9652;49.014;12.052;2023-06-14T06:52:07;97597.00;;;20.80
19040;BMP180;9652;49.014;12.052;2023-06-14T06:54:34;97589.00;;;20.90
19040;BMP180;9652;49.014;12.052;2023-06-14T06:57:01;97596.00;;;21.00
19040;BMP180;9652;49.014;12.052;2023-06-14T06:59:29;97601.00;;;21.10
19040;BMP180;9652;49.014;12.052;2023-06-14T07:01:57;97602.00;;;21.20
19040;BMP180;9652;49.014;12.052;2023-06-14T07:04:24;97605.00;;;21.30
19040;BMP180;9652;49.014;12.052;2023-06-14T07:06:51;97601.00;;;21.40
19040;BMP180;9652;49.014;12.052;2023-06-14T07:09:18;97612.00;;;21.50
19040;BMP180;9652;49.014;12.052;2023-06-14T07:11:47;97585.00;;;21.60
19040;BMP180;9652;49.014;12.052;2023-06-14T07:14:14;97611.00;;;21.70
19040;BMP180;9652;49.014;12.052;2023-06-14T07:16:41;97599.00;;;21.80
19040;BMP180;9652;49.014;12.052;2023-06-14T07:19:10;97604.00;;;21.90
19040;BMP180;9652;49.014;12.052;2023-06-14T07:21:37;97624.00;;;22.00
19040;BMP180;9652;49.014;12.052;2023-06-14T07:24:06;97611.00;;;22.10
19040;BMP180;9652;49.014;12.052;2023-06-14T07:26:33;97618.00;;;22.20
19040;BMP180;9652;49.014;12.052;2023-06-14T07:29:01;97616.00;;;22.30
19040;BMP180;9652;49.014;12.052;2023-06-14T07:31:28;97608.00;;;22.50
19040;BMP180;9652;49.014;12.052;2023-06-14T07:33:55;97615.00;;;22.70
19040;BMP180;9652;49.014;12.052;2023-06-14T07:36:23;97578.00;;;22.80
19040;BMP180;9652;49.014;12.052;2023-06-14T07:38:50;97618.00;;;22.90
19040;BMP180;9652;49.014;12.052;2023-06-14T07:41:17;97625.00;;;23.00
19040;BMP180;9652;49.014;12.052;2023-06-14T07:43:44;97617.00;;;23.10
19040;BMP180;9652;49.014;12.052;2023-06-14T07:46:11;97627.00;;;23.20
19040;BMP180;9652;49.014;12.052;2023-06-14T07:48:39;97618.00;;;23.30
19040;BMP180;9652;49.014;12.052;2023-06-14T07:51:05;97622.00;;;23.30
19040;BMP180;9652;49.014;12.052;2023-06-14T07:53:34;97619.00;;;23.30
19040;BMP180;9652;49.014;12.052;2023-06-14T07:56:01;97630.00;;;23.30
19040;BMP180;9652;49.014;12.052;2023-06-14T07:58:28;97617.00;;;23.40
19040;BMP180;9652;49.014;12.052;2023-06-14T08:00:55;97618.00;;;23.40
19040;BMP180;9652;49.014;12.052;2023-06-14T08:03:22;97620.00;;;23.40
19040;BMP180;9652;49.014;12.052;2023-06-14T08:05:49;97620.00;;;23.30
19040;BMP180;9652;49.014;12.052;2023-06-14T08:08:17;97617.00;;;23.30
19040;BMP180;9652;49.014;12.052;2023-06-14T08:10:45;97615.00;;;23.30
19040;BMP180;9652;49.014;12.052;2023-06-14T08:13:12;97629.00;;;23.30
19040;BMP180;9652;49.014;12.052;2023-06-14T08:15:39;97626.00;;;23.40
19040;BMP180;9652;49.014;12.052;2023-06-14T08:18:06;97623.00;;;23.40
19040;BMP180;9652;49.014;12.052;2023-06-14T08:20:33;97632.00;;;23.30
19040;BMP180;9652;49.014;12.052;2023-06-14T08:23:02;97642.00;;;23.60
19040;BMP180;9652;49.014;12.052;2023-06-14T08:25:29;97629.00;;;23.70
19040;BMP180;9652;49.014;12.052;2023-06-14T08:27:59;97638.00;;;23.80
19040;BMP180;9652;49.014;12.052;2023-06-14T08:30:26;97637.00;;;23.90
19040;BMP180;9652;49.014;12.052;2023-06-14T08:32:53;97646.00;;;24.00
19040;BMP180;9652;49.014;12.052;2023-06-14T08:35:22;97639.00;;;24.20
19040;BMP180;9652;49.014;12.052;2023-06-14T08:37:49;97627.00;;;24.30
19040;BMP180;9652;49.014;12.052;2023-06-14T08:40:21;97650.00;;;24.40
19040;BMP180;9652;49.014;12.052;2023-06-14T08:42:52;97643.00;;;24.50
19040;BMP180;9652;49.014;12.052;2023-06-14T08:45:22;97639.00;;;24.60
19040;BMP180;9652;49.014;12.052;2023-06-14T08:47:50;97643.00;;;24.70
19040;BMP180;9652;49.014;12.052;2023-06-14T08:50:21;97642.00;;;24.70
19040;BMP180;9652;49.014;12.052;2023-06-14T08:52:54;97643.00;;;24.80
19040;BMP180;9652;49.014;12.052;2023-06-14T08:55:23;97650.00;;;24.90
19040;BMP180;9652;49.014;12.052;2023-06-14T08:57:55;97648.00;;;24.90
19040;BMP180;9652;49.014;12.052;2023-06-14T09:00:26;97647.00;;;25.00
19040;BMP180;9652;49.014;12.052;2023-06-14T09:02:53;97652.00;;;25.00
19040;BMP180;9652;49.014;12.052;2023-06-14T09:05:24;97651.00;;;25.10
19040;BMP180;9652;49.014;12.052;2023-06-14T09:07:51;97649.00;;;25.20
19040;BMP180;9652;49.014;12.052;2023-06-14T09:10:21;97652.00;;;25.40
19040;BMP180;9652;49.014;12.052;2023-06-14T09:12:49;97659.00;;;25.50
19040;BMP180;9652;49.014;12.052;2023-06-14T09:15:16;97656.00;;;25.70
19040;BMP180;9652;49.014;12.052;2023-06-14T09:17:45;97653.00;;;25.80
19040;BMP180;9652;49.014;12.052;2023-06-14T09:20:12;97641.00;;;26.00
19040;BMP180;9652;49.014;12.052;2023-06-14T09:22:43;97650.00;;;26.10
19040;BMP180;9652;49.014;12.052;2023-06-14T09:25:10;97663.00;;;26.20
19040;BMP180;9652;49.014;12.052;2023-06-14T09:27:41;97661.00;;;26.30
19040;BMP180;9652;49.014;12.052;2023-06-14T09:30:10;97639.00;;;26.30
19040;BMP180;9652;49.014;12.052;2023-06-14T09:32:38;97659.00;;;26.30
19040;BMP180;9652;49.014;12.052;2023-06-14T09:35:08;97660.00;;;26.30
19040;BMP180;9652;49.014;12.052;2023-06-14T09:37:36;97656.00;;;26.30
19040;BMP180;9652;49.014;12.052;2023-06-14T09:40:05;97652.00;;;26.40
19040;BMP180;9652;49.014;12.052;2023-06-14T09:42:33;97667.00;;;26.50
19040;BMP180;9652;49.014;12.052;2023-06-14T09:45:03;97652.00;;;26.50
19040;BMP180;9652;49.014;12.052;2023-06-14T09:47:30;97670.00;;;26.60
19040;BMP180;9652;49.014;12.052;2023-06-14T09:49:57;97673.00;;;26.70
19040;BMP180;9652;49.014;12.052;2023-06-14T09:52:28;97675.00;;;26.70
19040;BMP180;9652;49.014;12.052;2023-06-14T09:54:57;97666.00;;;26.80
19040;BMP180;9652;49.014;12.052;2023-06-14T09:57:28;97672.00;;;26.90
19040;BMP180;9652;49.014;12.052;2023-06-14T10:00:02;97669.00;;;27.00
19040;BMP180;9652;49.014;12.052;2023-06-14T10:02:40;97678.00;;;27.10
19040;BMP180;9652;49.014;12.052;2023-06-14T10:05:17;97675.00;;;27.20
19040;BMP180;9652;49.014;12.052;2023-06-14T10:07:52;97674.00;;;27.30
19040;BMP180;9652;49.014;12.052;2023-06-14T10:10:20;97678.00;;;27.50
19040;BMP180;9652;49.014;12.052;2023-06-14T10:12:47;97673.00;;;27.60
19040;BMP180;9652;49.014;12.052;2023-06-14T10:15:24;97674.00;;;27.70
19040;BMP180;9652;49.014;12.052;2023-06-14T10:17:59;97674.00;;;27.80
19040;BMP180;9652;49.014;12.052;2023-06-14T10:20:33;97664.00;;;28.00
19040;BMP180;9652;49.014;12.052;2023-06-14T10:23:12;97667.00;;;28.10
19040;BMP180;9652;49.014;12.052;2023-06-14T10:25:42;97646.00;;;28.20
19040;BMP180;9652;49.014;12.052;2023-06-14T10:28:17;97667.00;;;28.30
19040;BMP180;9652;49.014;12.052;2023-06-14T10:31:06;97662.00;;;28.40
19040;BMP180;9652;49.014;12.052;2023-06-14T10:33:36;97666.00;;;28.40
19040;BMP180;9652;49.014;12.052;2023-06-14T10:36:23;97667.00;;;28.40
19040;BMP180;9652;49.014;12.052;2023-06-14T10:39:05;97665.00;;;28.10
19040;BMP180;9652;49.014;12.052;2023-06-14T10:41:37;97667.00;;;28.40
19040;BMP180;9652;49.014;12.052;2023-06-14T10:44:39;97662.00;;;28.30
19040;BMP180;9652;49.014;12.052;2023-06-14T10:47:09;97664.00;;;28.20
19040;BMP180;9652;49.014;12.052;2023-06-14T10:49:43;97663.00;;;28.10
19040;BMP180;9652;49.014;12.052;2023-06-14T10:52:13;97661.00;;;28.20
19040;BMP180;9652;49.014;12.052;2023-06-14T10:55:13;97661.00;;;28.20
19040;BMP180;9652;49.014;12.052;2023-06-14T10:57:43;97657.00;;;28.20
19040;BMP180;9652;49.014;12.052;2023-06-14T11:00:13;97656.00;;;28.20
19040;BMP180;9652;49.014;12.052;2023-06-14T11:06:17;97652.00;;;28.20
19040;BMP180;9652;49.014;12.052;2023-06-14T11:12:18;97646.00;;;28.30
19040;BMP180;9652;49.014;12.052;2023-06-14T11:14:48;97644.00;;;28.30
19040;BMP180;9652;49.014;12.052;2023-06-14T11:17:15;97648.00;;;28.40
19040;BMP180;9652;49.014;12.052;2023-06-14T11:19:42;97631.00;;;28.60
19040;BMP180;9652;49.014;12.052;2023-06-14T11:22:10;97649.00;;;28.70
19040;BMP180;9652;49.014;12.052;2023-06-14T11:24:37;97643.00;;;28.90
19040;BMP180;9652;49.014;12.052;2023-06-14T11:27:05;97643.00;;;29.00
19040;BMP180;9652;49.014;12.052;2023-06-14T11:29:35;97637.00;;;29.20
19040;BMP180;9652;49.014;12.052;2023-06-14T11:32:06;97648.00;;;29.40
19040;BMP180;9652;49.014;12.052;2023-06-14T11:34:38;97651.00;;;29.60
19040;BMP180;9652;49.014;12.052;2023-06-14T11:37:05;97653.00;;;29.80
19040;BMP180;9652;49.014;12.052;2023-06-14T11:39:32;97647.00;;;30.00
19040;BMP180;9652;49.014;12.052;2023-06-14T11:42:01;97634.00;;;30.10
19040;BMP180;9652;49.014;12.052;2023-06-14T11:44:29;97636.00;;;30.30
19040;BMP180;9652;49.014;12.052;2023-06-14T11:46:57;97629.00;;;30.30
19040;BMP180;9652;49.014;12.052;2023-06-14T11:49:24;97633.00;;;30.30
19040;BMP180;9652;49.014;12.052;2023-06-14T11:51:53;97647.00;;;30.30
19040;BMP180;9652;49.014;12.052;2023-06-14T11:54:21;97638.00;;;30.20
19040;BMP180;9652;49.014;12.052;2023-06-14T11:56:48;97643.00;;;30.00
19040;BMP180;9652;49.014;12.052;2023-06-14T11:59:15;97643.00;;;29.80
19040;BMP180;9652;49.014;12.052;2023-06-14T12:01:43;97634.00;;;29.60
19040;BMP180;9652;49.014;12.052;2023-06-14T12:04:12;97635.00;;;29.30
19040;BMP180;9652;49.014;12.052;2023-06-14T12:06:39;97633.00;;;29.10
19040;BMP180;9652;49.014;12.052;2023-06-14T12:09:07;97633.00;;;28.90
19040;BMP180;9652;49.014;12.052;2023-06-14T12:11:38;97640.00;;;28.80
19040;BMP180;9652;49.014;12.052;2023-06-14T12:14:07;97629.00;;;28.70
19040;BMP180;9652;49.014;12.052;2023-06-14T12:16:38;97620.00;;;28.60
19040;BMP180;9652;49.014;12.052;2023-06-14T12:19:15;97625.00;;;28.60
19040;BMP180;9652;49.014;12.052;2023-06-14T12:21:43;97631.00;;;28.70
19040;BMP180;9652;49.014;12.052;2023-06-14T12:24:12;97633.00;;;28.70
19040;BMP180;9652;49.014;12.052;2023-06-14T12:26:40;97635.00;;;28.80
19040;BMP180;9652;49.014;12.052;2023-06-14T12:29:08;97631.00;;;28.80
19040;BMP180;9652;49.014;12.052;2023-06-14T12:31:35;97632.00;;;28.90
19040;BMP180;9652;49.014;12.052;2023-06-14T12:34:03;97630.00;;;28.90
19040;BMP180;9652;49.014;12.052;2023-06-14T12:36:31;97634.00;;;28.90
19040;BMP180;9652;49.014;12.052;2023-06-14T12:38:59;97623.00;;;29.00
19040;BMP180;9652;49.014;12.052;2023-06-14T12:41:26;97630.00;;;29.00
19040;BMP180;9652;49.014;12.052;2023-06-14T12:43:53;97631.00;;;29.10
19040;BMP180;9652;49.014;12.052;2023-06-14T12:46:21;97647.00;;;29.10
19040;BMP180;9652;49.014;12.052;2023-06-14T12:48:48;97638.00;;;29.10
19040;BMP180;9652;49.014;12.052;2023-06-14T12:51:15;97627.00;;;29.10
19040;BMP180;9652;49.014;12.052;2023-06-14T12:53:43;97640.00;;;29.10
19040;BMP180;9652;49.014;12.052;2023-06-14T12:56:10;97651.00;;;29.00
19040;BMP180;9652;49.014;12.052;2023-06-14T12:58:37;97643.00;;;29.00
19040;BMP180;9652;49.014;12.052;2023-06-14T13:01:04;97642.00;;;29.00
19040;BMP180;9652;49.014;12.052;2023-06-14T13:03:31;97620.00;;;29.00
19040;BMP180;9652;49.014;12.052;2023-06-14T13:06:00;97644.00;;;29.10
19040;BMP180;9652;49.014;12.052;2023-06-14T13:08:27;97639.00;;;29.10
19040;BMP180;9652;49.014;12.052;2023-06-14T13:10:56;97648.00;;;29.20
19040;BMP180;9652;49.014;12.052;2023-06-14T13:13:23;97650.00;;;29.30
19040;BMP180;9652;49.014;12.052;2023-06-14T13:15:50;97653.00;;;29.30
19040;BMP180;9652;49.014;12.052;2023-06-14T13:18:18;97644.00;;;29.30
19040;BMP180;9652;49.014;12.052;2023-06-14T13:20:46;97648.00;;;29.30
19040;BMP180;9652;49.014;12.052;2023-06-14T13:23:15;97643.00;;;29.40
19040;BMP180;9652;49.014;12.052;2023-06-14T13:25:43;97639.00;;;29.60
19040;BMP180;9652;49.014;12.052;2023-06-14T13:28:11;97643.00;;;29.70
19040;BMP180;9652;49.014;12.052;2023-06-14T13:30:39;97635.00;;;29.80
19040;BMP180;9652;49.014;12.052;2023-06-14T13:33:06;97642.00;;;29.90
19040;BMP180;9652;49.014;12.052;2023-06-14T13:35:33;97640.00;;;30.00
19040;BMP180;9652;49.014;12.052;2023-06-14T13:38:00;97629.00;;;30.00
19040;BMP180;9652;49.014;12.052;2023-06-14T13:40:27;97637.00;;;29.80
19040;BMP180;9652;49.014;12.052;2023-06-14T13:42:54;97630.00;;;30.00
19040;BMP180;9652;49.014;12.052;2023-06-14T13:45:23;97629.00;;;30.00
19040;BMP180;9652;49.014;12.052;2023-06-14T13:47:50;97627.00;;;30.00
19040;BMP180;9652;49.014;12.052;2023-06-14T13:50:17;97627.00;;;30.00
19040;BMP180;9652;49.014;12.052;2023-06-14T13:52:44;97627.00;;;30.10
19040;BMP180;9652;49.014;12.052;2023-06-14T13:55:12;97621.00;;;30.20
19040;BMP180;9652;49.014;12.052;2023-06-14T13:57:39;97621.00;;;30.20
19040;BMP180;9652;49.014;12.052;2023-06-14T14:00:08;97623.00;;;30.40
19040;BMP180;9652;49.014;12.052;2023-06-14T14:02:40;97619.00;;;30.80
19040;BMP180;9652;49.014;12.052;2023-06-14T14:05:09;97601.00;;;31.30
19040;BMP180;9652;49.014;12.052;2023-06-14T14:07:36;97622.00;;;31.80
19040;BMP180;9652;49.014;12.052;2023-06-14T14:10:05;97618.00;;;32.30
19040;BMP180;9652;49.014;12.052;2023-06-14T14:12:32;97625.00;;;32.70
19040;BMP180;9652;49.014;12.052;2023-06-14T14:14:59;97631.00;;;32.90
19040;BMP180;9652;49.014;12.052;2023-06-14T14:17:26;97631.00;;;32.90
19040;BMP180;9652;49.014;12.052;2023-06-14T14:19:55;97619.00;;;32.80
19040;BMP180;9652;49.014;12.052;2023-06-14T14:22:22;97627.00;;;32.60
19040;BMP180;9652;49.014;12.052;2023-06-14T14:24:49;97627.00;;;32.30